^^
Station Historical Data
Daily Summary for March 11, 2017 Units:  English    Metric   Both
« Previous Day
Next Day »
Daily Weekly Monthly Yearly Custom
  High: Low: Average:
Temperature: 28.9 °F 16.3 °F 22.4 °F
Dew Point: 9.7 °F 1.4 °F 6.1 °F
Humidity: 60 % 41 % 49 %
Wind Speed: 18.1 mph 1.5 mph 9.1 mph
Wind Gust: 26.5 mph - -
Wind:- - WNW
Pressure: 30.33 in 30.14 in -
Precipitation: 0.00 in    
Historical Graphs
 
 
Tabular Data for March 11, 2017
Time Temperature Dew Point Pressure Wind Wind Speed Wind Gust Humidity Rainfall Rate (Hourly) solar Conditions
00:04 20.9 °F 6.4 °F 30.14 in WNW 5.7 mph 11.0 mph 53 % 0.00 in 0.0 W/m2 RA
00:09 20.7 °F 7.1 °F 30.14 in WNW 12.2 mph 18.4 mph 55 % 0.00 in 0.0 W/m2 RA
00:14 20.5 °F 7.3 °F 30.14 in NW 6.5 mph 11.5 mph 56 % 0.00 in 0.0 W/m2 CLR
00:19 20.2 °F 7.0 °F 30.15 in WNW 3.7 mph 9.2 mph 56 % 0.00 in 0.0 W/m2 CLR
00:24 20.0 °F 6.8 °F 30.15 in NW 6.3 mph 11.5 mph 56 % 0.00 in 0.0 W/m2 CLR
00:29 19.9 °F 6.3 °F 30.15 in WSW 12.7 mph 18.4 mph 55 % 0.00 in 0.0 W/m2 CLR
00:34 19.7 °F 6.5 °F 30.15 in NW 13.3 mph 20.7 mph 56 % 0.00 in 0.0 W/m2 CLR
00:39 19.5 °F 5.9 °F 30.15 in NW 10.3 mph 13.8 mph 55 % 0.00 in 0.0 W/m2 CLR
00:44 19.4 °F 5.4 °F 30.15 in NNW 8.3 mph 16.0 mph 54 % 0.00 in 0.0 W/m2 CLR
00:49 19.3 °F 5.3 °F 30.15 in WNW 7.2 mph 14.0 mph 54 % 0.00 in 0.0 W/m2 CLR
00:54 19.3 °F 4.9 °F 30.15 in WNW 10.4 mph 13.8 mph 53 % 0.00 in 0.0 W/m2 CLR
00:59 19.1 °F 5.2 °F 30.16 in NW 12.5 mph 20.7 mph 54 % 0.00 in 0.0 W/m2 CLR
01:04 19.0 °F 5.1 °F 30.16 in WNW 5.6 mph 11.5 mph 54 % 0.00 in 0.0 W/m2 CLR
01:09 18.9 °F 4.6 °F 30.16 in NW 8.5 mph 11.5 mph 53 % 0.00 in 0.0 W/m2 CLR
01:14 18.8 °F 4.5 °F 30.16 in NW 8.5 mph 15.0 mph 53 % 0.00 in 0.0 W/m2 CLR
01:19 18.7 °F 4.4 °F 30.16 in NW 6.6 mph 11.5 mph 53 % 0.00 in 0.0 W/m2 CLR
01:24 18.6 °F 4.3 °F 30.16 in NNW 8.9 mph 11.5 mph 53 % 0.00 in 0.0 W/m2 CLR
01:29 18.4 °F 4.5 °F 30.16 in WNW 6.2 mph 11.5 mph 54 % 0.00 in 0.0 W/m2 CLR
01:34 18.2 °F 4.7 °F 30.16 in NNW 16.9 mph 21.9 mph 55 % 0.00 in 0.0 W/m2 CLR
01:39 18.1 °F 5.0 °F 30.16 in West 9.7 mph 16.1 mph 56 % 0.00 in 0.0 W/m2 CLR
01:44 18.1 °F 4.6 °F 30.16 in West 12.7 mph 18.0 mph 55 % 0.00 in 0.0 W/m2 CLR
01:49 17.9 °F 5.2 °F 30.16 in WNW 11.1 mph 19.6 mph 57 % 0.00 in 0.0 W/m2 CLR
01:54 17.8 °F 5.1 °F 30.16 in NW 15.2 mph 26.5 mph 57 % 0.00 in 0.0 W/m2 CLR
01:59 17.7 °F 6.2 °F 30.16 in WNW 12.5 mph 15.0 mph 60 % 0.00 in 0.0 W/m2 CLR
02:04 17.7 °F 5.4 °F 30.16 in WNW 13.5 mph 18.4 mph 58 % 0.00 in 0.0 W/m2 CLR
02:09 17.6 °F 4.9 °F 30.17 in WNW 7.3 mph 11.0 mph 57 % 0.00 in 0.0 W/m2 CLR
02:14 17.6 °F 4.5 °F 30.16 in WNW 8.3 mph 16.1 mph 56 % 0.00 in 0.0 W/m2 CLR
02:19 17.5 °F 4.5 °F 30.17 in NW 7.9 mph 11.5 mph 56 % 0.00 in 0.0 W/m2 CLR
02:24 17.3 °F 4.3 °F 30.16 in West 12.6 mph 17.3 mph 56 % 0.00 in 0.0 W/m2 CLR
02:29 17.3 °F 3.9 °F 30.16 in NW 10.7 mph 17.3 mph 55 % 0.00 in 0.0 W/m2 CLR
02:34 17.3 °F 3.9 °F 30.16 in WNW 7.4 mph 13.8 mph 55 % 0.00 in 0.0 W/m2 CLR
02:39 17.2 °F 3.4 °F 30.16 in WNW 6.4 mph 11.5 mph 54 % 0.00 in 0.0 W/m2 CLR
02:44 17.3 °F 3.1 °F 30.16 in NW 4.2 mph 17.3 mph 53 % 0.00 in 0.0 W/m2 CLR
02:49 17.1 °F 3.3 °F 30.16 in NNW 7.1 mph 11.5 mph 54 % 0.00 in 0.0 W/m2 CLR
02:54 17.0 °F 3.2 °F 30.16 in WNW 7.6 mph 14.0 mph 54 % 0.00 in 0.0 W/m2 CLR
02:59 16.9 °F 3.1 °F 30.16 in WNW 6.8 mph 11.5 mph 54 % 0.00 in 0.0 W/m2 CLR
03:04 16.8 °F 3.0 °F 30.16 in NW 11.8 mph 19.6 mph 54 % 0.00 in 0.0 W/m2 CLR
03:09 16.7 °F 2.9 °F 30.16 in WNW 8.7 mph 16.1 mph 54 % 0.00 in 0.0 W/m2 CLR
03:15 16.7 °F 2.9 °F 30.16 in NW 7.9 mph 13.8 mph 54 % 0.00 in 0.0 W/m2 CLR
03:20 16.7 °F 2.9 °F 30.16 in WNW 6.9 mph 11.5 mph 54 % 0.00 in 0.0 W/m2 CLR
03:25 16.7 °F 2.9 °F 30.16 in West 2.3 mph 6.9 mph 54 % 0.00 in 0.0 W/m2 CLR
03:30 16.6 °F 2.8 °F 30.16 in WNW 6.2 mph 15.0 mph 54 % 0.00 in 0.0 W/m2 CLR
03:35 16.7 °F 2.5 °F 30.16 in West 8.0 mph 15.0 mph 53 % 0.00 in 0.0 W/m2 CLR
03:40 16.7 °F 2.1 °F 30.16 in WNW 10.0 mph 16.0 mph 52 % 0.00 in 0.0 W/m2 CLR
03:45 16.7 °F 2.1 °F 30.17 in West 10.0 mph 13.0 mph 52 % 0.00 in 0.0 W/m2 CLR
03:50 16.6 °F 1.6 °F 30.16 in WNW 6.6 mph 13.0 mph 51 % 0.00 in 0.0 W/m2 CLR
03:55 16.7 °F 1.7 °F 30.17 in WNW 5.2 mph 11.5 mph 51 % 0.00 in 0.0 W/m2 CLR
04:00 16.6 °F 1.6 °F 30.17 in West 5.4 mph 11.5 mph 51 % 0.00 in 0.0 W/m2 CLR
04:05 16.5 °F 1.5 °F 30.17 in WNW 8.9 mph 13.8 mph 51 % 0.00 in 0.0 W/m2 CLR
04:10 16.6 °F 1.6 °F 30.17 in NW 8.1 mph 12.7 mph 51 % 0.00 in 0.0 W/m2 CLR
04:15 16.5 °F 1.5 °F 30.17 in West 9.7 mph 16.1 mph 51 % 0.00 in 0.0 W/m2 CLR
04:20 16.5 °F 1.5 °F 30.17 in WNW 8.4 mph 15.0 mph 51 % 0.00 in 0.0 W/m2 CLR
04:25 16.6 °F 1.6 °F 30.17 in WNW 9.0 mph 13.8 mph 51 % 0.00 in 0.0 W/m2 CLR
04:30 16.6 °F 1.6 °F 30.18 in NW 2.7 mph 5.8 mph 51 % 0.00 in 0.0 W/m2 CLR
04:35 16.4 °F 1.8 °F 30.18 in WNW 6.5 mph 11.5 mph 52 % 0.00 in 0.0 W/m2 CLR
04:40 16.4 °F 1.4 °F 30.18 in WNW 4.2 mph 11.5 mph 51 % 0.00 in 0.0 W/m2 CLR
04:45 16.4 °F 1.4 °F 30.17 in WNW 4.5 mph 11.0 mph 51 % 0.00 in 0.0 W/m2 CLR
04:50 16.5 °F 1.5 °F 30.17 in WNW 5.9 mph 10.4 mph 51 % 0.00 in 0.0 W/m2 CLR
04:55 16.5 °F 1.9 °F 30.18 in WNW 8.1 mph 11.5 mph 52 % 0.00 in 0.0 W/m2 CLR
05:00 16.4 °F 1.8 °F 30.18 in WNW 3.8 mph 8.1 mph 52 % 0.00 in 0.0 W/m2 CLR
05:05 16.4 °F 1.8 °F 30.18 in West 5.8 mph 11.5 mph 52 % 0.00 in 0.0 W/m2 CLR
05:10 16.3 °F 1.7 °F 30.18 in NW 6.2 mph 11.5 mph 52 % 0.00 in 0.0 W/m2 CLR
05:15 16.3 °F 1.7 °F 30.18 in NW 2.6 mph 5.8 mph 52 % 0.00 in 0.0 W/m2 CLR
05:20 16.3 °F 1.7 °F 30.19 in WNW 10.1 mph 15.0 mph 52 % 0.00 in 0.0 W/m2 CLR
05:25 16.4 °F 2.2 °F 30.20 in WNW 6.8 mph 13.8 mph 53 % 0.00 in 0.0 W/m2 CLR
05:30 16.5 °F 2.3 °F 30.20 in West 1.5 mph 4.0 mph 53 % 0.00 in 0.0 W/m2 CLR
05:35 16.5 °F 2.3 °F 30.20 in WNW 4.8 mph 11.5 mph 53 % 0.00 in 0.0 W/m2 CLR
05:40 16.5 °F 2.3 °F 30.20 in West 6.3 mph 15.0 mph 53 % 0.00 in 0.0 W/m2 CLR
05:45 16.6 °F 2.4 °F 30.20 in WNW 4.0 mph 9.2 mph 53 % 0.00 in 0.0 W/m2 CLR
05:50 16.5 °F 2.3 °F 30.20 in West 3.3 mph 10.4 mph 53 % 0.00 in 0.0 W/m2 CLR
05:55 16.5 °F 2.7 °F 30.21 in WNW 3.0 mph 4.6 mph 54 % 0.00 in 0.0 W/m2 CLR
06:00 16.6 °F 2.8 °F 30.21 in WNW 9.5 mph 15.0 mph 54 % 0.00 in 0.0 W/m2 CLR
06:05 16.6 °F 2.8 °F 30.21 in WSW 7.1 mph 11.5 mph 54 % 0.00 in 0.0 W/m2 CLR
06:10 16.6 °F 2.8 °F 30.21 in West 6.1 mph 9.0 mph 54 % 0.00 in 0.0 W/m2 CLR
06:15 16.6 °F 3.2 °F 30.21 in West 3.5 mph 6.9 mph 55 % 0.00 in 0.0 W/m2 CLR
06:20 16.5 °F 3.1 °F 30.22 in WSW 4.2 mph 10.4 mph 55 % 0.00 in 5.0 W/m2 CLR
06:25 16.5 °F 3.1 °F 30.22 in WNW 3.3 mph 8.0 mph 55 % 0.00 in 7.0 W/m2 CLR
06:30 16.5 °F 3.1 °F 30.22 in West 6.1 mph 10.4 mph 55 % 0.00 in 9.0 W/m2 CLR
06:35 16.5 °F 3.1 °F 30.22 in WSW 4.4 mph 9.2 mph 55 % 0.00 in 11.0 W/m2 CLR
06:40 16.6 °F 3.2 °F 30.23 in WSW 2.7 mph 9.2 mph 55 % 0.00 in 12.0 W/m2 CLR
06:45 16.7 °F 3.3 °F 30.23 in West 6.2 mph 10.0 mph 55 % 0.00 in 16.0 W/m2 CLR
06:50 16.8 °F 3.0 °F 30.23 in West 7.3 mph 11.5 mph 54 % 0.00 in 19.0 W/m2 CLR
06:55 17.0 °F 3.2 °F 30.23 in West 6.3 mph 11.5 mph 54 % 0.00 in 25.0 W/m2 CLR
07:00 17.1 °F 3.3 °F 30.23 in West 1.6 mph 6.9 mph 54 % 0.00 in 25.0 W/m2 CLR
07:06 17.3 °F 3.9 °F 30.23 in West 6.6 mph 10.4 mph 55 % 0.00 in 39.0 W/m2 FEW
07:11 17.3 °F 3.9 °F 30.24 in West 3.4 mph 11.5 mph 55 % 0.00 in 26.0 W/m2 BKN
07:16 17.3 °F 3.9 °F 30.24 in West 2.1 mph 8.1 mph 55 % 0.00 in 39.0 W/m2 BKN
07:21 17.5 °F 4.1 °F 30.24 in WSW 1.8 mph 8.1 mph 55 % 0.00 in 33.0 W/m2 BKN
07:26 17.7 °F 4.2 °F 30.24 in West 3.4 mph 7.0 mph 55 % 0.00 in 90.0 W/m2 BKN
07:31 18.0 °F 4.5 °F 30.24 in West 2.0 mph 3.5 mph 55 % 0.00 in 69.0 W/m2 FEW
07:36 18.0 °F 4.1 °F 30.24 in West 5.3 mph 8.1 mph 54 % 0.00 in 46.0 W/m2 BKN
07:41 18.1 °F 4.6 °F 30.24 in WSW 3.8 mph 12.0 mph 55 % 0.00 in 58.0 W/m2 BKN
07:46 18.3 °F 4.8 °F 30.24 in West 8.8 mph 15.0 mph 55 % 0.00 in 104.0 W/m2 FEW
07:51 18.5 °F 4.6 °F 30.24 in West 7.4 mph 11.5 mph 54 % 0.00 in 153.0 W/m2 FEW
07:56 18.7 °F 4.8 °F 30.24 in West 9.0 mph 16.1 mph 54 % 0.00 in 116.0 W/m2 SCT
08:01 18.8 °F 4.9 °F 30.24 in West 9.3 mph 13.8 mph 54 % 0.00 in 142.0 W/m2 FEW
08:06 19.0 °F 5.1 °F 30.24 in WNW 3.7 mph 11.5 mph 54 % 0.00 in 230.0 W/m2 CLR
08:11 19.4 °F 5.4 °F 30.24 in NW 9.3 mph 17.3 mph 54 % 0.00 in 186.0 W/m2 CLR
08:16 19.7 °F 5.7 °F 30.25 in West 7.7 mph 11.5 mph 54 % 0.00 in 214.0 W/m2 CLR
08:21 19.8 °F 5.4 °F 30.25 in West 7.9 mph 12.7 mph 53 % 0.00 in 311.0 W/m2 CLR
08:26 20.1 °F 5.7 °F 30.25 in WNW 15.7 mph 19.6 mph 53 % 0.00 in 454.0 W/m2 CLR
08:31 20.5 °F 6.1 °F 30.25 in WNW 10.5 mph 15.0 mph 53 % 0.00 in 468.0 W/m2 CLR
08:36 20.8 °F 6.3 °F 30.25 in NW 12.2 mph 13.8 mph 53 % 0.00 in 471.0 W/m2 CLR
08:41 21.3 °F 6.4 °F 30.25 in NW 11.2 mph 13.8 mph 52 % 0.00 in 508.0 W/m2 CLR
08:46 21.2 °F 6.7 °F 30.25 in West 8.3 mph 13.0 mph 53 % 0.00 in 520.0 W/m2 CLR
08:51 21.6 °F 7.1 °F 30.25 in WNW 6.8 mph 13.8 mph 53 % 0.00 in 566.0 W/m2 CLR
08:56 21.6 °F 7.1 °F 30.25 in WNW 7.1 mph 15.0 mph 53 % 0.00 in 547.0 W/m2 CLR
09:01 21.9 °F 7.4 °F 30.25 in WNW 10.0 mph 16.1 mph 53 % 0.00 in 603.0 W/m2 CLR
09:06 22.0 °F 7.5 °F 30.25 in West 11.6 mph 18.4 mph 53 % 0.00 in 673.0 W/m2 CLR
09:11 22.3 °F 7.7 °F 30.25 in West 8.6 mph 15.0 mph 53 % 0.00 in 617.0 W/m2 CLR
09:16 22.1 °F 7.1 °F 30.25 in WNW 13.6 mph 19.0 mph 52 % 0.00 in 684.0 W/m2 CLR
09:21 22.8 °F 7.8 °F 30.25 in NNW 16.6 mph 19.6 mph 52 % 0.00 in 691.0 W/m2 CLR
09:26 22.8 °F 7.4 °F 30.25 in WSW 8.8 mph 18.4 mph 51 % 0.00 in 657.0 W/m2 CLR
09:31 22.5 °F 6.6 °F 30.25 in NW 13.8 mph 18.4 mph 50 % 0.00 in 703.0 W/m2 CLR
09:36 22.5 °F 6.6 °F 30.24 in WNW 14.9 mph 25.3 mph 50 % 0.00 in 715.0 W/m2 CLR
09:41 22.9 °F 7.4 °F 30.24 in NW 8.6 mph 11.5 mph 51 % 0.00 in 251.0 W/m2 FEW
09:46 23.0 °F 7.5 °F 30.24 in West 3.7 mph 15.0 mph 51 % 0.00 in 232.0 W/m2 SCT
09:51 23.4 °F 7.5 °F 30.24 in NW 14.2 mph 20.7 mph 50 % 0.00 in 744.0 W/m2 CLR
09:56 23.3 °F 6.9 °F 30.24 in WNW 8.6 mph 13.8 mph 49 % 0.00 in 749.0 W/m2 CLR
10:01 23.3 °F 7.8 °F 30.24 in WNW 11.6 mph 18.0 mph 51 % 0.00 in 795.0 W/m2 CLR
10:06 23.0 °F 6.7 °F 30.24 in NW 13.8 mph 20.7 mph 49 % 0.00 in 251.0 W/m2 BKN
10:11 23.2 °F 7.7 °F 30.24 in WNW 16.1 mph 26.5 mph 51 % 0.00 in 758.0 W/m2 CLR
10:16 23.4 °F 7.5 °F 30.24 in WNW 15.6 mph 20.7 mph 50 % 0.00 in 652.0 W/m2 CLR
10:21 23.3 °F 7.4 °F 30.24 in NW 7.3 mph 17.3 mph 50 % 0.00 in 350.0 W/m2 CLR
10:26 23.4 °F 7.0 °F 30.24 in WNW 13.7 mph 18.4 mph 49 % 0.00 in 392.0 W/m2 SCT
10:31 23.4 °F 7.0 °F 30.24 in West 7.1 mph 16.1 mph 49 % 0.00 in 729.0 W/m2 FEW
10:36 24.0 °F 8.0 °F 30.24 in WNW 6.9 mph 10.0 mph 50 % 0.00 in 281.0 W/m2 FEW
10:42 24.0 °F 7.1 °F 30.24 in WNW 16.6 mph 18.4 mph 48 % 0.00 in 290.0 W/m2 CLR
10:47 23.8 °F 7.4 °F 30.24 in WNW 7.4 mph 17.3 mph 49 % 0.00 in 352.0 W/m2 SCT
10:52 24.1 °F 6.3 °F 30.24 in WNW 13.6 mph 19.6 mph 46 % 0.00 in 932.0 W/m2 CLR
10:57 24.1 °F 5.8 °F 30.24 in NW 11.6 mph 19.6 mph 45 % 0.00 in 253.0 W/m2 BKN
11:02 24.1 °F 6.7 °F 30.24 in WNW 8.5 mph 18.4 mph 47 % 0.00 in 875.0 W/m2 CLR
11:07 24.9 °F 7.0 °F 30.24 in NNW 6.7 mph 10.4 mph 46 % 0.00 in 520.0 W/m2 FEW
11:12 24.6 °F 6.3 °F 30.23 in WSW 8.2 mph 17.0 mph 45 % 0.00 in 439.0 W/m2 FEW
11:17 24.5 °F 5.7 °F 30.23 in West 7.8 mph 11.5 mph 44 % 0.00 in 446.0 W/m2 FEW
11:22 24.8 °F 6.4 °F 30.23 in WNW 11.8 mph 18.4 mph 45 % 0.00 in 415.0 W/m2 SCT
11:27 24.6 °F 5.8 °F 30.23 in West 11.6 mph 16.1 mph 44 % 0.00 in 373.0 W/m2 SCT
11:32 24.7 °F 5.8 °F 30.23 in WSW 11.6 mph 17.3 mph 44 % 0.00 in 564.0 W/m2 FEW
11:37 25.2 °F 6.3 °F 30.23 in WNW 8.2 mph 13.8 mph 44 % 0.00 in 619.0 W/m2 FEW
11:42 25.9 °F 7.4 °F 30.23 in NW 8.2 mph 12.7 mph 45 % 0.00 in 478.0 W/m2 CLR
11:47 25.6 °F 7.2 °F 30.23 in NW 7.0 mph 12.7 mph 45 % 0.00 in 374.0 W/m2 SCT
11:52 27.0 °F 8.5 °F 30.23 in WNW 6.3 mph 10.4 mph 45 % 0.00 in 1143.0 W/m2 CLR
11:57 27.0 °F 8.5 °F 30.23 in WNW 9.8 mph 15.0 mph 45 % 0.00 in 445.0 W/m2 FEW
12:02 26.1 °F 6.1 °F 30.23 in NW 10.5 mph 17.3 mph 42 % 0.00 in 420.0 W/m2 FEW
12:07 25.5 °F 6.6 °F 30.23 in West 10.0 mph 13.8 mph 44 % 0.00 in 469.0 W/m2 FEW
12:12 26.1 °F 7.6 °F 30.22 in West 10.7 mph 15.0 mph 45 % 0.00 in 1009.0 W/m2 CLR
12:17 25.8 °F 7.8 °F 30.22 in SW 6.4 mph 11.5 mph 46 % 0.00 in 501.0 W/m2 FEW
12:22 25.7 °F 7.7 °F 30.22 in West 10.6 mph 13.8 mph 46 % 0.00 in 891.0 W/m2 SCT
12:27 25.9 °F 8.4 °F 30.22 in WNW 13.5 mph 20.7 mph 47 % 0.00 in 378.0 W/m2 SCT
12:32 26.1 °F 8.1 °F 30.22 in West 14.1 mph 18.4 mph 46 % 0.00 in 914.0 W/m2 CLR
12:37 26.3 °F 8.3 °F 30.22 in WNW 15.4 mph 21.9 mph 46 % 0.00 in 584.0 W/m2 CLR
12:42 26.5 °F 8.0 °F 30.22 in West 15.9 mph 18.4 mph 45 % 0.00 in 812.0 W/m2 CLR
12:47 27.7 °F 9.1 °F 30.22 in WNW 7.8 mph 13.8 mph 45 % 0.00 in 983.0 W/m2 CLR
12:52 27.9 °F 8.3 °F 30.22 in WNW 6.4 mph 20.7 mph 43 % 0.00 in 863.0 W/m2 FEW
12:57 26.8 °F 7.3 °F 30.22 in WNW 13.9 mph 25.3 mph 43 % 0.00 in 462.0 W/m2 SCT
13:02 26.8 °F 8.3 °F 30.22 in WSW 18.1 mph 23.0 mph 45 % 0.00 in 462.0 W/m2 FEW
13:07 27.2 °F 7.6 °F 30.22 in NW 10.6 mph 18.0 mph 43 % 0.00 in 577.0 W/m2 CLR
13:09 27.2 °F 8.1 °F 30.22 in West 12.0 mph 17.3 mph 44 % 0.00 in 425.0 W/m2 FEW
13:14 27.3 °F 8.2 °F 30.22 in WNW 9.2 mph 13.8 mph 44 % 0.00 in 993.0 W/m2 CLR
13:19 27.6 °F 8.0 °F 30.21 in WNW 9.6 mph 19.6 mph 43 % 0.00 in 466.0 W/m2 CLR
13:24 27.9 °F 8.3 °F 30.21 in WNW 15.6 mph 21.9 mph 43 % 0.00 in 935.0 W/m2 CLR
13:29 27.2 °F 7.6 °F 30.21 in West 7.0 mph 17.3 mph 43 % 0.00 in 415.0 W/m2 SCT
13:34 27.0 °F 8.0 °F 30.21 in West 10.5 mph 18.4 mph 44 % 0.00 in 424.0 W/m2 FEW
13:39 27.5 °F 7.9 °F 30.21 in West 10.3 mph 16.1 mph 43 % 0.00 in 420.0 W/m2 FEW
13:44 27.1 °F 7.5 °F 30.21 in WSW 12.4 mph 19.6 mph 43 % 0.00 in 345.0 W/m2 SCT
13:49 27.0 °F 6.9 °F 30.21 in West 9.7 mph 21.0 mph 42 % 0.00 in 306.0 W/m2 SCT
13:54 26.9 °F 6.8 °F 30.20 in West 9.6 mph 15.0 mph 42 % 0.00 in 348.0 W/m2 FEW
13:59 27.4 °F 7.3 °F 30.21 in NW 10.1 mph 13.8 mph 42 % 0.00 in 345.0 W/m2 SCT
14:04 27.4 °F 8.3 °F 30.20 in WNW 8.6 mph 12.7 mph 44 % 0.00 in 343.0 W/m2 SCT
14:09 27.2 °F 8.1 °F 30.21 in West 10.1 mph 17.3 mph 44 % 0.00 in 260.0 W/m2 SCT
14:14 27.0 °F 7.4 °F 30.21 in WNW 7.3 mph 12.7 mph 43 % 0.00 in 376.0 W/m2 BKN
14:19 27.4 °F 8.3 °F 30.21 in West 10.9 mph 16.1 mph 44 % 0.00 in 343.0 W/m2 SCT
14:24 27.6 °F 8.5 °F 30.20 in NW 8.8 mph 17.3 mph 44 % 0.00 in 348.0 W/m2 SCT
14:29 28.9 °F 9.7 °F 30.20 in WNW 10.9 mph 18.4 mph 44 % 0.00 in 842.0 W/m2 CLR
14:34 28.8 °F 8.0 °F 30.20 in WSW 15.2 mph 19.6 mph 41 % 0.00 in 304.0 W/m2 SCT
14:39 27.6 °F 8.0 °F 30.21 in WSW 11.8 mph 18.4 mph 43 % 0.00 in 297.0 W/m2 SCT
14:40 27.6 °F 7.5 °F 30.21 in West 12.0 mph 20.0 mph 42 % 0.00 in 330.0 W/m2 SCT
14:45 27.9 °F 9.3 °F 30.20 in WSW 9.4 mph 14.0 mph 45 % 0.00 in 810.0 W/m2 CLR
14:50 28.1 °F 8.4 °F 30.20 in West 15.4 mph 23.0 mph 43 % 0.00 in 304.0 W/m2 CLR
14:55 27.3 °F 8.7 °F 30.20 in WNW 10.9 mph 16.1 mph 45 % 0.00 in 272.0 W/m2 SCT
15:00 27.9 °F 8.8 °F 30.20 in West 10.6 mph 19.6 mph 44 % 0.00 in 650.0 W/m2 CLR
15:05 28.7 °F 9.5 °F 30.21 in West 8.0 mph 18.0 mph 44 % 0.00 in 677.0 W/m2 CLR
15:10 28.2 °F 8.5 °F 30.21 in WNW 6.5 mph 16.1 mph 43 % 0.00 in 160.0 W/m2 BKN
15:15 27.4 °F 8.3 °F 30.21 in NW 13.2 mph 19.6 mph 44 % 0.00 in 188.0 W/m2 BKN
15:20 27.3 °F 8.2 °F 30.22 in WNW 18.0 mph 26.0 mph 44 % 0.00 in 274.0 W/m2 SCT
15:25 27.5 °F 8.4 °F 30.21 in WNW 6.9 mph 16.1 mph 44 % 0.00 in 295.0 W/m2 BKN
15:30 27.8 °F 9.2 °F 30.21 in NW 14.9 mph 19.6 mph 45 % 0.00 in 494.0 W/m2 CLR
15:35 28.4 °F 9.7 °F 30.21 in NW 13.0 mph 25.3 mph 45 % 0.00 in 271.0 W/m2 CLR
15:40 28.3 °F 9.1 °F 30.21 in WNW 11.5 mph 21.9 mph 44 % 0.00 in 408.0 W/m2 CLR
15:45 28.1 °F 9.0 °F 30.21 in WNW 10.4 mph 15.0 mph 44 % 0.00 in 199.0 W/m2 SCT
15:50 27.8 °F 8.7 °F 30.21 in WSW 13.4 mph 17.3 mph 44 % 0.00 in 504.0 W/m2 CLR
15:55 28.6 °F 8.9 °F 30.21 in WSW 11.9 mph 18.4 mph 43 % 0.00 in 403.0 W/m2 CLR
16:00 28.6 °F 8.9 °F 30.22 in West 12.7 mph 19.6 mph 43 % 0.00 in 302.0 W/m2 CLR
16:05 27.9 °F 8.8 °F 30.22 in WNW 10.4 mph 16.1 mph 44 % 0.00 in 172.0 W/m2 SCT
16:10 27.7 °F 9.1 °F 30.22 in West 5.5 mph 9.2 mph 45 % 0.00 in 272.0 W/m2 SCT
16:15 27.7 °F 8.6 °F 30.23 in WNW 12.3 mph 17.3 mph 44 % 0.00 in 232.0 W/m2 CLR
16:20 27.6 °F 8.5 °F 30.23 in West 9.3 mph 15.0 mph 44 % 0.00 in 114.0 W/m2 BKN
16:25 27.2 °F 8.1 °F 30.22 in WNW 11.2 mph 15.0 mph 44 % 0.00 in 93.0 W/m2 BKN
16:30 27.1 °F 8.0 °F 30.22 in West 17.1 mph 24.2 mph 44 % 0.00 in 113.0 W/m2 SCT
16:35 27.2 °F 8.1 °F 30.22 in West 14.1 mph 19.6 mph 44 % 0.00 in 137.0 W/m2 SCT
16:36 27.2 °F 7.6 °F 30.23 in West 13.7 mph 19.6 mph 43 % 0.00 in 155.0 W/m2 FEW
16:41 27.4 °F 8.3 °F 30.23 in WSW 10.5 mph 15.0 mph 44 % 0.00 in 236.0 W/m2 CLR
16:46 27.6 °F 9.0 °F 30.23 in West 12.5 mph 16.1 mph 45 % 0.00 in 95.0 W/m2 SCT
16:51 27.2 °F 8.6 °F 30.23 in West 9.1 mph 15.0 mph 45 % 0.00 in 86.0 W/m2 SCT
16:56 27.0 °F 8.5 °F 30.23 in SW 12.2 mph 18.4 mph 45 % 0.00 in 88.0 W/m2 SCT
17:01 27.1 °F 8.5 °F 30.23 in WNW 10.7 mph 16.1 mph 45 % 0.00 in 86.0 W/m2 CLR
17:06 27.1 °F 8.5 °F 30.23 in West 13.5 mph 20.0 mph 45 % 0.00 in 83.0 W/m2 FEW
17:11 27.0 °F 8.5 °F 30.23 in West 11.5 mph 18.0 mph 45 % 0.00 in 97.0 W/m2 CLR
17:16 26.8 °F 8.8 °F 30.23 in West 9.7 mph 16.1 mph 46 % 0.00 in 58.0 W/m2 SCT
17:21 26.7 °F 9.1 °F 30.24 in WNW 10.0 mph 10.4 mph 47 % 0.00 in 51.0 W/m2 SCT
17:26 26.6 °F 8.1 °F 30.24 in WNW 13.3 mph 20.7 mph 45 % 0.00 in 51.0 W/m2 SCT
17:31 26.5 °F 8.0 °F 30.24 in WNW 9.7 mph 15.0 mph 45 % 0.00 in 40.0 W/m2 SCT
17:36 26.5 °F 7.5 °F 30.24 in WNW 10.4 mph 17.3 mph 44 % 0.00 in 25.0 W/m2 BKN
17:41 26.4 °F 6.9 °F 30.24 in West 11.8 mph 19.6 mph 43 % 0.00 in 28.0 W/m2 FEW
17:46 26.3 °F 7.3 °F 30.24 in West 12.3 mph 18.4 mph 44 % 0.00 in 23.0 W/m2 FEW
17:51 26.3 °F 7.8 °F 30.24 in WNW 9.4 mph 17.0 mph 45 % 0.00 in 12.0 W/m2 SCT
17:56 26.1 °F 7.6 °F 30.24 in West 11.1 mph 15.0 mph 45 % 0.00 in 7.0 W/m2 BKN
18:01 26.0 °F 8.0 °F 30.24 in West 8.6 mph 14.0 mph 46 % 0.00 in 5.0 W/m2 SCT
18:06 25.9 °F 7.9 °F 30.24 in WNW 11.1 mph 17.3 mph 46 % 0.00 in 0.0 W/m2 SCT
18:11 25.8 °F 8.3 °F 30.24 in WNW 9.7 mph 15.0 mph 47 % 0.00 in 0.0 W/m2 SCT
18:16 25.7 °F 7.7 °F 30.24 in West 10.5 mph 14.0 mph 46 % 0.00 in 0.0 W/m2 SCT
18:21 25.6 °F 8.1 °F 30.24 in WNW 9.0 mph 15.0 mph 47 % 0.00 in 0.0 W/m2 SCT
18:26 25.5 °F 8.0 °F 30.24 in West 7.8 mph 11.5 mph 47 % 0.00 in 0.0 W/m2 SCT
18:31 25.4 °F 7.9 °F 30.24 in West 2.0 mph 4.6 mph 47 % 0.00 in 0.0 W/m2 SCT
18:36 25.2 °F 8.7 °F 30.25 in NW 1.9 mph 4.6 mph 49 % 0.00 in 0.0 W/m2 SCT
18:41 25.2 °F 8.2 °F 30.25 in NW 5.7 mph 9.2 mph 48 % 0.00 in 0.0 W/m2 SCT
18:46 25.2 °F 8.2 °F 30.25 in WSW 6.3 mph 11.0 mph 48 % 0.00 in 0.0 W/m2 SCT
18:51 25.3 °F 7.4 °F 30.25 in West 7.7 mph 13.8 mph 46 % 0.00 in 0.0 W/m2 SCT
18:56 25.3 °F 7.4 °F 30.26 in WNW 14.7 mph 20.7 mph 46 % 0.00 in 0.0 W/m2 SCT
19:01 25.2 °F 7.3 °F 30.26 in WNW 10.6 mph 16.1 mph 46 % 0.00 in 0.0 W/m2 OVC
19:06 25.2 °F 7.3 °F 30.26 in WNW 11.4 mph 18.4 mph 46 % 0.00 in 0.0 W/m2 CLR
19:11 25.0 °F 7.1 °F 30.26 in West 7.0 mph 18.4 mph 46 % 0.00 in 0.0 W/m2 CLR
19:16 24.9 °F 7.5 °F 30.26 in NW 10.4 mph 19.0 mph 47 % 0.00 in 0.0 W/m2 CLR
19:21 24.8 °F 6.9 °F 30.27 in WNW 13.3 mph 17.3 mph 46 % 0.00 in 0.0 W/m2 CLR
19:26 24.7 °F 7.3 °F 30.27 in West 10.0 mph 13.8 mph 47 % 0.00 in 0.0 W/m2 CLR
19:31 24.7 °F 6.8 °F 30.27 in West 10.9 mph 13.8 mph 46 % 0.00 in 0.0 W/m2 CLR
19:36 24.6 °F 6.7 °F 30.27 in West 5.1 mph 11.5 mph 46 % 0.00 in 0.0 W/m2 CLR
19:41 24.5 °F 6.6 °F 30.27 in WSW 9.3 mph 12.7 mph 46 % 0.00 in 0.0 W/m2 CLR
19:46 24.5 °F 6.6 °F 30.28 in West 8.7 mph 12.7 mph 46 % 0.00 in 0.0 W/m2 CLR
19:51 24.3 °F 6.5 °F 30.28 in WNW 11.8 mph 13.0 mph 46 % 0.00 in 0.0 W/m2 CLR
19:56 24.3 °F 6.5 °F 30.28 in West 12.0 mph 18.0 mph 46 % 0.00 in 0.0 W/m2 CLR
20:01 24.2 °F 6.4 °F 30.28 in West 7.8 mph 12.7 mph 46 % 0.00 in 0.0 W/m2 CLR
20:06 24.1 °F 6.3 °F 30.28 in WNW 10.3 mph 15.0 mph 46 % 0.00 in 0.0 W/m2 CLR
20:11 24.1 °F 6.3 °F 30.28 in WNW 7.4 mph 12.7 mph 46 % 0.00 in 0.0 W/m2 CLR
20:16 24.1 °F 6.3 °F 30.28 in NW 12.9 mph 22.0 mph 46 % 0.00 in 0.0 W/m2 CLR
20:21 24.0 °F 6.2 °F 30.28 in West 8.7 mph 13.8 mph 46 % 0.00 in 0.0 W/m2 CLR
20:26 23.9 °F 6.6 °F 30.28 in West 10.8 mph 17.3 mph 47 % 0.00 in 0.0 W/m2 CLR
20:31 23.8 °F 6.5 °F 30.29 in West 6.6 mph 13.8 mph 47 % 0.00 in 0.0 W/m2 CLR
20:36 23.7 °F 6.8 °F 30.29 in WSW 6.7 mph 12.7 mph 48 % 0.00 in 0.0 W/m2 CLR
20:41 23.6 °F 6.8 °F 30.29 in WNW 7.0 mph 16.1 mph 48 % 0.00 in 0.0 W/m2 CLR
20:46 23.6 °F 6.8 °F 30.30 in West 5.7 mph 10.4 mph 48 % 0.00 in 0.0 W/m2 CLR
20:51 23.5 °F 6.7 °F 30.30 in WNW 2.6 mph 7.0 mph 48 % 0.00 in 0.0 W/m2 CLR
20:56 23.5 °F 6.7 °F 30.30 in West 11.8 mph 18.4 mph 48 % 0.00 in 0.0 W/m2 CLR
21:01 23.5 °F 6.2 °F 30.30 in West 7.1 mph 11.5 mph 47 % 0.00 in 0.0 W/m2 CLR
21:06 23.4 °F 6.6 °F 30.30 in WNW 4.8 mph 11.5 mph 48 % 0.00 in 0.0 W/m2 CLR
21:11 23.3 °F 6.5 °F 30.30 in West 6.9 mph 12.7 mph 48 % 0.00 in 0.0 W/m2 CLR
21:16 23.3 °F 6.5 °F 30.30 in West 9.7 mph 10.4 mph 48 % 0.00 in 0.0 W/m2 CLR
21:21 23.2 °F 6.4 °F 30.30 in WNW 9.2 mph 16.0 mph 48 % 0.00 in 0.0 W/m2 CLR
21:26 23.2 °F 6.4 °F 30.30 in NNW 10.2 mph 12.0 mph 48 % 0.00 in 0.0 W/m2 CLR
21:31 23.1 °F 6.3 °F 30.30 in WSW 8.2 mph 13.8 mph 48 % 0.00 in 0.0 W/m2 CLR
21:36 23.0 °F 6.2 °F 30.30 in NW 9.3 mph 14.0 mph 48 % 0.00 in 0.0 W/m2 CLR
21:41 23.0 °F 6.2 °F 30.30 in WNW 8.9 mph 13.8 mph 48 % 0.00 in 0.0 W/m2 CLR
21:46 23.0 °F 6.2 °F 30.30 in WNW 9.3 mph 16.1 mph 48 % 0.00 in 0.0 W/m2 CLR
21:51 23.1 °F 6.3 °F 30.31 in West 9.8 mph 15.0 mph 48 % 0.00 in 0.0 W/m2 CLR
21:56 23.0 °F 6.2 °F 30.31 in West 9.1 mph 15.0 mph 48 % 0.00 in 0.0 W/m2 CLR
22:01 22.9 °F 6.6 °F 30.31 in WNW 9.7 mph 16.1 mph 49 % 0.00 in 0.0 W/m2 CLR
22:06 22.9 °F 6.6 °F 30.31 in WNW 9.5 mph 10.4 mph 49 % 0.00 in 0.0 W/m2 CLR
22:11 22.8 °F 6.5 °F 30.31 in WNW 10.5 mph 11.0 mph 49 % 0.00 in 0.0 W/m2 CLR
22:13 22.8 °F 6.5 °F 30.31 in WNW 7.6 mph 13.8 mph 49 % 0.00 in 0.0 W/m2 CLR
22:18 22.8 °F 6.5 °F 30.31 in West 9.0 mph 15.0 mph 49 % 0.00 in 0.0 W/m2 CLR
22:23 22.8 °F 6.5 °F 30.32 in WSW 9.5 mph 13.8 mph 49 % 0.00 in 0.0 W/m2 CLR
22:28 22.7 °F 6.4 °F 30.32 in WNW 6.2 mph 13.8 mph 49 % 0.00 in 0.0 W/m2 CLR
22:33 22.7 °F 6.8 °F 30.32 in WNW 10.3 mph 12.7 mph 50 % 0.00 in 0.0 W/m2 CLR
22:34 22.7 °F 6.8 °F 30.32 in WNW 10.9 mph 17.3 mph 50 % 0.00 in 0.0 W/m2 CLR
22:39 22.7 °F 6.8 °F 30.32 in WNW 10.9 mph 16.1 mph 50 % 0.00 in 0.0 W/m2 CLR
22:44 22.7 °F 6.8 °F 30.32 in WNW 9.9 mph 16.1 mph 50 % 0.00 in 0.0 W/m2 CLR
22:49 22.6 °F 6.7 °F 30.32 in West 9.0 mph 11.5 mph 50 % 0.00 in 0.0 W/m2 CLR
22:54 22.6 °F 7.2 °F 30.32 in West 8.4 mph 16.1 mph 51 % 0.00 in 0.0 W/m2 CLR
22:59 22.5 °F 7.1 °F 30.32 in West 9.1 mph 19.6 mph 51 % 0.00 in 0.0 W/m2 CLR
23:04 22.4 °F 7.0 °F 30.32 in West 9.2 mph 13.8 mph 51 % 0.00 in 0.0 W/m2 CLR
23:10 22.4 °F 7.0 °F 30.32 in WNW 10.2 mph 16.0 mph 51 % 0.00 in 0.0 W/m2 CLR
23:15 22.3 °F 7.3 °F 30.32 in West 5.5 mph 12.0 mph 52 % 0.00 in 0.0 W/m2 CLR
23:20 22.4 °F 7.0 °F 30.32 in WNW 11.1 mph 17.3 mph 51 % 0.00 in 0.0 W/m2 CLR
23:25 22.4 °F 7.0 °F 30.32 in West 9.0 mph 18.0 mph 51 % 0.00 in 0.0 W/m2 CLR
23:30 22.5 °F 7.1 °F 30.32 in WNW 7.0 mph 13.8 mph 51 % 0.00 in 0.0 W/m2 CLR
23:35 22.4 °F 7.0 °F 30.32 in WNW 5.0 mph 12.0 mph 51 % 0.00 in 0.0 W/m2 CLR
23:40 22.4 °F 7.4 °F 30.33 in WNW 3.9 mph 11.5 mph 52 % 0.00 in 0.0 W/m2 CLR
23:45 22.4 °F 7.4 °F 30.33 in WNW 4.8 mph 8.1 mph 52 % 0.00 in 0.0 W/m2 CLR
23:50 22.4 °F 7.4 °F 30.33 in West 5.8 mph 11.5 mph 52 % 0.00 in 0.0 W/m2 CLR
23:55 22.5 °F 7.5 °F 30.33 in WNW 7.1 mph 11.5 mph 52 % 0.00 in 0.0 W/m2 CLR
Air Products Campus Weather
Compliments of Weather Underground - 3.5 mb